Komatsu, Japan
Current Conditions -  °F | °C
As of 12:00 AM on Sunday 21 Dec 2014 (Local Time) from RJNK Reporting Station
Rain Showers Rain Showers  
Wind Chill: 41°   Ceiling: 4000
Heat Index: 48°   Visibility: 5mi
Dew Point: 41°   Wind: 21mph
Humidity: 76%   Direction: 300°WNW
Pressure: 29.91"   Gusts: NA
Location:  36.41°N, 136.44°E
Report Text: RJNK 201500Z 30018KT 8000 -SHRA FEW015 SCT020 BKN040 09/05 Q1013 RETS
Loading
Personal Weather Stations






























Interactive Weather Map New forecast layout! Learn more

10-Day Weather Forecast

Advertisements
Track Severe Weather on mobile